sensor_id;sensor_type;location;lat;lon;timestamp;P1;durP1;ratioP1;P2;durP2;ratioP2
66607;SDS011;53462;39.616;8.824;2023-02-13T00:01:43;12.30;;;5.65;;
66607;SDS011;53462;39.616;8.824;2023-02-13T00:04:09;8.82;;;5.32;;
66607;SDS011;53462;39.616;8.824;2023-02-13T00:06:35;8.27;;;4.82;;
66607;SDS011;53462;39.616;8.824;2023-02-13T00:09:01;8.68;;;4.82;;
66607;SDS011;53462;39.616;8.824;2023-02-13T00:11:28;8.57;;;5.10;;
66607;SDS011;53462;39.616;8.824;2023-02-13T00:13:53;11.57;;;5.70;;
66607;SDS011;53462;39.616;8.824;2023-02-13T00:16:19;11.35;;;6.97;;
66607;SDS011;53462;39.616;8.824;2023-02-13T00:18:45;18.05;;;9.35;;
66607;SDS011;53462;39.616;8.824;2023-02-13T00:21:12;26.98;;;14.60;;
66607;SDS011;53462;39.616;8.824;2023-02-13T00:23:38;11.73;;;7.50;;
66607;SDS011;53462;39.616;8.824;2023-02-13T00:26:09;13.85;;;7.85;;
66607;SDS011;53462;39.616;8.824;2023-02-13T00:28:41;12.63;;;7.20;;
66607;SDS011;53462;39.616;8.824;2023-02-13T00:31:11;13.43;;;7.40;;
66607;SDS011;53462;39.616;8.824;2023-02-13T00:33:40;12.43;;;7.20;;
66607;SDS011;53462;39.616;8.824;2023-02-13T00:36:13;12.57;;;6.57;;
66607;SDS011;53462;39.616;8.824;2023-02-13T00:38:43;11.60;;;6.50;;
66607;SDS011;53462;39.616;8.824;2023-02-13T00:41:10;10.27;;;6.47;;
66607;SDS011;53462;39.616;8.824;2023-02-13T00:43:37;13.68;;;6.15;;
66607;SDS011;53462;39.616;8.824;2023-02-13T00:46:04;10.95;;;7.38;;
66607;SDS011;53462;39.616;8.824;2023-02-13T00:48:31;10.60;;;5.95;;
66607;SDS011;53462;39.616;8.824;2023-02-13T00:50:58;11.25;;;6.03;;
66607;SDS011;53462;39.616;8.824;2023-02-13T00:53:25;14.02;;;6.70;;
66607;SDS011;53462;39.616;8.824;2023-02-13T00:55:51;9.48;;;6.05;;
66607;SDS011;53462;39.616;8.824;2023-02-13T00:58:18;10.25;;;6.28;;
66607;SDS011;53462;39.616;8.824;2023-02-13T01:00:45;9.95;;;5.75;;
66607;SDS011;53462;39.616;8.824;2023-02-13T01:03:12;9.70;;;5.90;;
66607;SDS011;53462;39.616;8.824;2023-02-13T01:05:40;11.60;;;6.13;;
66607;SDS011;53462;39.616;8.824;2023-02-13T01:08:06;11.40;;;6.13;;
66607;SDS011;53462;39.616;8.824;2023-02-13T01:10:33;12.45;;;6.75;;
66607;SDS011;53462;39.616;8.824;2023-02-13T01:12:58;14.98;;;7.50;;
66607;SDS011;53462;39.616;8.824;2023-02-13T01:15:25;11.57;;;6.47;;
66607;SDS011;53462;39.616;8.824;2023-02-13T01:17:54;10.98;;;6.35;;
66607;SDS011;53462;39.616;8.824;2023-02-13T01:20:24;10.13;;;5.57;;
66607;SDS011;53462;39.616;8.824;2023-02-13T01:22:50;9.88;;;5.43;;
66607;SDS011;53462;39.616;8.824;2023-02-13T01:25:16;9.13;;;5.85;;
66607;SDS011;53462;39.616;8.824;2023-02-13T01:27:42;11.10;;;6.40;;
66607;SDS011;53462;39.616;8.824;2023-02-13T01:30:09;14.02;;;6.97;;
66607;SDS011;53462;39.616;8.824;2023-02-13T01:32:41;10.50;;;6.15;;
66607;SDS011;53462;39.616;8.824;2023-02-13T01:35:10;10.43;;;6.70;;
66607;SDS011;53462;39.616;8.824;2023-02-13T01:37:37;11.00;;;6.30;;
66607;SDS011;53462;39.616;8.824;2023-02-13T01:40:04;12.98;;;6.95;;
66607;SDS011;53462;39.616;8.824;2023-02-13T01:42:32;10.75;;;6.65;;
66607;SDS011;53462;39.616;8.824;2023-02-13T01:45:00;10.82;;;6.88;;
66607;SDS011;53462;39.616;8.824;2023-02-13T01:47:48;12.02;;;6.45;;
66607;SDS011;53462;39.616;8.824;2023-02-13T01:53:09;12.88;;;6.30;;
66607;SDS011;53462;39.616;8.824;2023-02-13T01:58:55;8.30;;;4.97;;
66607;SDS011;53462;39.616;8.824;2023-02-13T02:01:25;8.82;;;5.45;;
66607;SDS011;53462;39.616;8.824;2023-02-13T02:04:03;9.80;;;5.05;;
66607;SDS011;53462;39.616;8.824;2023-02-13T02:06:34;9.80;;;5.30;;
66607;SDS011;53462;39.616;8.824;2023-02-13T02:09:08;8.23;;;4.32;;
66607;SDS011;53462;39.616;8.824;2023-02-13T02:14:10;11.13;;;5.95;;
66607;SDS011;53462;39.616;8.824;2023-02-13T02:16:36;12.20;;;6.18;;
66607;SDS011;53462;39.616;8.824;2023-02-13T02:19:03;11.65;;;6.05;;
66607;SDS011;53462;39.616;8.824;2023-02-13T02:21:48;10.45;;;6.03;;
66607;SDS011;53462;39.616;8.824;2023-02-13T02:24:39;10.73;;;5.65;;
66607;SDS011;53462;39.616;8.824;2023-02-13T02:38:25;9.63;;;5.25;;
66607;SDS011;53462;39.616;8.824;2023-02-13T02:41:16;12.77;;;6.32;;
66607;SDS011;53462;39.616;8.824;2023-02-13T02:44:21;21.45;;;9.48;;
66607;SDS011;53462;39.616;8.824;2023-02-13T02:58:18;14.25;;;7.15;;
66607;SDS011;53462;39.616;8.824;2023-02-13T03:01:10;10.88;;;5.88;;
66607;SDS011;53462;39.616;8.824;2023-02-13T03:03:59;10.20;;;5.88;;
66607;SDS011;53462;39.616;8.824;2023-02-13T03:06:55;10.55;;;5.85;;
66607;SDS011;53462;39.616;8.824;2023-02-13T03:09:29;12.20;;;5.90;;
66607;SDS011;53462;39.616;8.824;2023-02-13T03:12:21;10.43;;;5.70;;
66607;SDS011;53462;39.616;8.824;2023-02-13T03:15:07;7.90;;;4.63;;
66607;SDS011;53462;39.616;8.824;2023-02-13T03:17:34;10.23;;;4.18;;
66607;SDS011;53462;39.616;8.824;2023-02-13T03:20:27;9.63;;;4.85;;
66607;SDS011;53462;39.616;8.824;2023-02-13T03:23:32;7.60;;;4.75;;
66607;SDS011;53462;39.616;8.824;2023-02-13T03:32:12;7.07;;;4.43;;
66607;SDS011;53462;39.616;8.824;2023-02-13T03:34:56;7.78;;;4.75;;
66607;SDS011;53462;39.616;8.824;2023-02-13T03:38:13;10.15;;;5.80;;
66607;SDS011;53462;39.616;8.824;2023-02-13T03:41:04;6.82;;;4.45;;
66607;SDS011;53462;39.616;8.824;2023-02-13T03:46:41;7.88;;;4.68;;
66607;SDS011;53462;39.616;8.824;2023-02-13T03:49:16;7.68;;;4.78;;
66607;SDS011;53462;39.616;8.824;2023-02-13T03:52:08;10.07;;;4.70;;
66607;SDS011;53462;39.616;8.824;2023-02-13T03:54:42;8.27;;;4.53;;
66607;SDS011;53462;39.616;8.824;2023-02-13T03:57:30;7.45;;;4.10;;
66607;SDS011;53462;39.616;8.824;2023-02-13T04:00:20;7.20;;;3.85;;
66607;SDS011;53462;39.616;8.824;2023-02-13T04:05:38;7.40;;;4.22;;
66607;SDS011;53462;39.616;8.824;2023-02-13T04:08:08;7.05;;;4.03;;
66607;SDS011;53462;39.616;8.824;2023-02-13T04:10:35;7.03;;;4.18;;
66607;SDS011;53462;39.616;8.824;2023-02-13T04:18:31;11.57;;;5.10;;
66607;SDS011;53462;39.616;8.824;2023-02-13T04:21:05;6.05;;;3.50;;
66607;SDS011;53462;39.616;8.824;2023-02-13T04:23:31;7.53;;;4.47;;
66607;SDS011;53462;39.616;8.824;2023-02-13T04:25:59;7.22;;;4.28;;
66607;SDS011;53462;39.616;8.824;2023-02-13T04:28:30;7.68;;;4.80;;
66607;SDS011;53462;39.616;8.824;2023-02-13T04:30:56;9.05;;;4.28;;
66607;SDS011;53462;39.616;8.824;2023-02-13T04:33:22;10.55;;;5.72;;
66607;SDS011;53462;39.616;8.824;2023-02-13T04:35:48;10.65;;;5.50;;
66607;SDS011;53462;39.616;8.824;2023-02-13T04:38:14;12.65;;;5.88;;
66607;SDS011;53462;39.616;8.824;2023-02-13T04:40:40;12.02;;;5.90;;
66607;SDS011;53462;39.616;8.824;2023-02-13T04:43:06;10.75;;;5.78;;
66607;SDS011;53462;39.616;8.824;2023-02-13T04:45:32;8.55;;;4.47;;
66607;SDS011;53462;39.616;8.824;2023-02-13T04:47:58;13.05;;;6.90;;
66607;SDS011;53462;39.616;8.824;2023-02-13T04:50:24;11.95;;;6.20;;
66607;SDS011;53462;39.616;8.824;2023-02-13T04:52:54;9.80;;;5.75;;
66607;SDS011;53462;39.616;8.824;2023-02-13T04:55:22;9.30;;;4.80;;
66607;SDS011;53462;39.616;8.824;2023-02-13T04:57:55;13.65;;;6.07;;
66607;SDS011;53462;39.616;8.824;2023-02-13T05:00:22;18.83;;;8.20;;
66607;SDS011;53462;39.616;8.824;2023-02-13T05:02:50;10.63;;;6.00;;
66607;SDS011;53462;39.616;8.824;2023-02-13T05:05:16;12.43;;;6.32;;
66607;SDS011;53462;39.616;8.824;2023-02-13T05:07:42;10.07;;;4.93;;
66607;SDS011;53462;39.616;8.824;2023-02-13T05:10:09;9.32;;;5.50;;
66607;SDS011;53462;39.616;8.824;2023-02-13T05:12:36;8.43;;;4.88;;
66607;SDS011;53462;39.616;8.824;2023-02-13T05:15:02;10.10;;;6.10;;
66607;SDS011;53462;39.616;8.824;2023-02-13T05:17:29;11.45;;;6.20;;
66607;SDS011;53462;39.616;8.824;2023-02-13T05:19:55;9.85;;;5.40;;
66607;SDS011;53462;39.616;8.824;2023-02-13T05:22:23;9.25;;;5.63;;
66607;SDS011;53462;39.616;8.824;2023-02-13T05:25:08;9.20;;;4.97;;
66607;SDS011;53462;39.616;8.824;2023-02-13T05:27:34;8.13;;;4.43;;
66607;SDS011;53462;39.616;8.824;2023-02-13T05:30:00;8.63;;;4.47;;
66607;SDS011;53462;39.616;8.824;2023-02-13T05:32:26;18.35;;;8.95;;
66607;SDS011;53462;39.616;8.824;2023-02-13T05:34:52;27.10;;;12.88;;
66607;SDS011;53462;39.616;8.824;2023-02-13T05:37:18;21.77;;;11.20;;
66607;SDS011;53462;39.616;8.824;2023-02-13T05:39:44;29.05;;;14.65;;
66607;SDS011;53462;39.616;8.824;2023-02-13T05:42:10;21.55;;;11.15;;
66607;SDS011;53462;39.616;8.824;2023-02-13T05:44:35;21.35;;;10.75;;
66607;SDS011;53462;39.616;8.824;2023-02-13T05:47:01;23.10;;;11.60;;
66607;SDS011;53462;39.616;8.824;2023-02-13T05:49:27;17.25;;;10.18;;
66607;SDS011;53462;39.616;8.824;2023-02-13T05:51:53;23.27;;;11.73;;
66607;SDS011;53462;39.616;8.824;2023-02-13T05:54:19;24.45;;;11.82;;
66607;SDS011;53462;39.616;8.824;2023-02-13T05:56:45;20.33;;;11.43;;
66607;SDS011;53462;39.616;8.824;2023-02-13T05:59:11;26.83;;;11.45;;
66607;SDS011;53462;39.616;8.824;2023-02-13T06:01:38;22.10;;;12.07;;
66607;SDS011;53462;39.616;8.824;2023-02-13T06:04:04;83.15;;;37.10;;
66607;SDS011;53462;39.616;8.824;2023-02-13T06:06:29;74.85;;;33.72;;
66607;SDS011;53462;39.616;8.824;2023-02-13T06:08:55;40.33;;;20.10;;
66607;SDS011;53462;39.616;8.824;2023-02-13T06:11:21;32.45;;;16.33;;
66607;SDS011;53462;39.616;8.824;2023-02-13T06:13:47;28.13;;;15.48;;
66607;SDS011;53462;39.616;8.824;2023-02-13T06:16:13;36.45;;;17.38;;
66607;SDS011;53462;39.616;8.824;2023-02-13T06:18:39;29.48;;;14.18;;
66607;SDS011;53462;39.616;8.824;2023-02-13T06:21:05;35.85;;;18.05;;
66607;SDS011;53462;39.616;8.824;2023-02-13T06:23:32;37.85;;;18.02;;
66607;SDS011;53462;39.616;8.824;2023-02-13T06:26:05;37.30;;;18.63;;
66607;SDS011;53462;39.616;8.824;2023-02-13T06:28:32;41.03;;;21.48;;
66607;SDS011;53462;39.616;8.824;2023-02-13T06:30:58;69.25;;;28.65;;
66607;SDS011;53462;39.616;8.824;2023-02-13T06:33:24;37.92;;;19.48;;
66607;SDS011;53462;39.616;8.824;2023-02-13T06:35:50;31.23;;;16.55;;
66607;SDS011;53462;39.616;8.824;2023-02-13T06:38:16;35.60;;;18.63;;
66607;SDS011;53462;39.616;8.824;2023-02-13T06:40:46;36.40;;;20.50;;
66607;SDS011;53462;39.616;8.824;2023-02-13T06:43:12;38.72;;;21.10;;
66607;SDS011;53462;39.616;8.824;2023-02-13T06:45:39;44.88;;;23.75;;
66607;SDS011;53462;39.616;8.824;2023-02-13T06:48:05;42.47;;;21.80;;
66607;SDS011;53462;39.616;8.824;2023-02-13T06:50:32;56.97;;;30.05;;
66607;SDS011;53462;39.616;8.824;2023-02-13T06:52:59;46.25;;;23.77;;
66607;SDS011;53462;39.616;8.824;2023-02-13T06:55:25;52.75;;;27.85;;
66607;SDS011;53462;39.616;8.824;2023-02-13T06:57:52;48.00;;;25.70;;
66607;SDS011;53462;39.616;8.824;2023-02-13T07:00:18;49.75;;;28.65;;
66607;SDS011;53462;39.616;8.824;2023-02-13T07:02:45;50.17;;;29.20;;
66607;SDS011;53462;39.616;8.824;2023-02-13T07:05:11;49.95;;;28.00;;
66607;SDS011;53462;39.616;8.824;2023-02-13T07:07:38;52.10;;;31.42;;
66607;SDS011;53462;39.616;8.824;2023-02-13T07:10:06;58.20;;;32.10;;
66607;SDS011;53462;39.616;8.824;2023-02-13T07:12:35;55.88;;;31.27;;
66607;SDS011;53462;39.616;8.824;2023-02-13T07:15:01;52.40;;;30.88;;
66607;SDS011;53462;39.616;8.824;2023-02-13T07:17:28;54.40;;;31.75;;
66607;SDS011;53462;39.616;8.824;2023-02-13T07:19:54;54.50;;;32.72;;
66607;SDS011;53462;39.616;8.824;2023-02-13T07:22:20;51.00;;;31.27;;
66607;SDS011;53462;39.616;8.824;2023-02-13T07:24:46;52.83;;;32.42;;
66607;SDS011;53462;39.616;8.824;2023-02-13T07:27:12;69.43;;;41.00;;
66607;SDS011;53462;39.616;8.824;2023-02-13T07:29:37;49.55;;;28.58;;
66607;SDS011;53462;39.616;8.824;2023-02-13T07:32:03;79.97;;;34.58;;
66607;SDS011;53462;39.616;8.824;2023-02-13T07:34:31;281.55;;;98.72;;
66607;SDS011;53462;39.616;8.824;2023-02-13T07:36:57;160.35;;;60.10;;
66607;SDS011;53462;39.616;8.824;2023-02-13T07:39:23;142.88;;;52.60;;
66607;SDS011;53462;39.616;8.824;2023-02-13T07:41:50;93.10;;;36.63;;
66607;SDS011;53462;39.616;8.824;2023-02-13T07:44:16;93.50;;;36.47;;
66607;SDS011;53462;39.616;8.824;2023-02-13T07:46:42;96.20;;;37.50;;
66607;SDS011;53462;39.616;8.824;2023-02-13T07:49:08;56.13;;;25.75;;
66607;SDS011;53462;39.616;8.824;2023-02-13T07:51:34;120.35;;;47.90;;
66607;SDS011;53462;39.616;8.824;2023-02-13T07:54:00;120.10;;;52.42;;
66607;SDS011;53462;39.616;8.824;2023-02-13T07:56:26;48.72;;;27.23;;
66607;SDS011;53462;39.616;8.824;2023-02-13T07:58:52;69.07;;;34.55;;
66607;SDS011;53462;39.616;8.824;2023-02-13T08:01:18;48.30;;;26.95;;
66607;SDS011;53462;39.616;8.824;2023-02-13T08:03:48;36.65;;;20.92;;
66607;SDS011;53462;39.616;8.824;2023-02-13T08:06:15;31.48;;;18.27;;
66607;SDS011;53462;39.616;8.824;2023-02-13T08:08:42;31.67;;;18.83;;
66607;SDS011;53462;39.616;8.824;2023-02-13T08:11:12;28.60;;;16.38;;
66607;SDS011;53462;39.616;8.824;2023-02-13T08:14:05;19.10;;;12.10;;
66607;SDS011;53462;39.616;8.824;2023-02-13T08:16:31;17.92;;;10.15;;
66607;SDS011;53462;39.616;8.824;2023-02-13T08:18:57;16.52;;;9.43;;
66607;SDS011;53462;39.616;8.824;2023-02-13T08:21:23;13.30;;;7.93;;
66607;SDS011;53462;39.616;8.824;2023-02-13T08:23:49;12.98;;;8.20;;
66607;SDS011;53462;39.616;8.824;2023-02-13T08:26:16;14.35;;;8.40;;
66607;SDS011;53462;39.616;8.824;2023-02-13T08:28:42;13.00;;;8.25;;
66607;SDS011;53462;39.616;8.824;2023-02-13T08:31:08;12.25;;;8.05;;
66607;SDS011;53462;39.616;8.824;2023-02-13T08:33:35;12.88;;;8.57;;
66607;SDS011;53462;39.616;8.824;2023-02-13T08:36:02;10.95;;;7.57;;
66607;SDS011;53462;39.616;8.824;2023-02-13T08:38:28;13.27;;;7.43;;
66607;SDS011;53462;39.616;8.824;2023-02-13T08:40:57;12.55;;;8.15;;
66607;SDS011;53462;39.616;8.824;2023-02-13T08:43:23;10.27;;;6.43;;
66607;SDS011;53462;39.616;8.824;2023-02-13T08:45:49;9.57;;;6.82;;
66607;SDS011;53462;39.616;8.824;2023-02-13T08:48:15;11.57;;;5.68;;
66607;SDS011;53462;39.616;8.824;2023-02-13T08:50:42;8.32;;;5.28;;
66607;SDS011;53462;39.616;8.824;2023-02-13T08:53:08;9.00;;;5.43;;
66607;SDS011;53462;39.616;8.824;2023-02-13T08:55:34;11.13;;;6.95;;
66607;SDS011;53462;39.616;8.824;2023-02-13T08:58:00;6.32;;;4.53;;
66607;SDS011;53462;39.616;8.824;2023-02-13T09:00:27;8.90;;;5.45;;
66607;SDS011;53462;39.616;8.824;2023-02-13T09:02:54;8.00;;;5.05;;
66607;SDS011;53462;39.616;8.824;2023-02-13T09:05:20;6.75;;;5.22;;
66607;SDS011;53462;39.616;8.824;2023-02-13T09:07:46;8.27;;;4.65;;
66607;SDS011;53462;39.616;8.824;2023-02-13T09:10:11;9.15;;;5.53;;
66607;SDS011;53462;39.616;8.824;2023-02-13T09:12:37;7.38;;;4.65;;
66607;SDS011;53462;39.616;8.824;2023-02-13T09:15:04;5.82;;;4.32;;
66607;SDS011;53462;39.616;8.824;2023-02-13T09:17:30;6.28;;;3.95;;
66607;SDS011;53462;39.616;8.824;2023-02-13T09:19:56;6.90;;;4.82;;
66607;SDS011;53462;39.616;8.824;2023-02-13T09:22:22;5.82;;;3.83;;
66607;SDS011;53462;39.616;8.824;2023-02-13T09:24:48;5.57;;;3.78;;
66607;SDS011;53462;39.616;8.824;2023-02-13T09:27:13;6.50;;;3.58;;
66607;SDS011;53462;39.616;8.824;2023-02-13T09:29:39;6.57;;;4.50;;
66607;SDS011;53462;39.616;8.824;2023-02-13T09:32:05;8.23;;;4.25;;
66607;SDS011;53462;39.616;8.824;2023-02-13T09:34:31;8.38;;;5.43;;
66607;SDS011;53462;39.616;8.824;2023-02-13T09:36:58;9.45;;;6.38;;
66607;SDS011;53462;39.616;8.824;2023-02-13T09:39:23;8.45;;;4.78;;
66607;SDS011;53462;39.616;8.824;2023-02-13T09:41:50;9.02;;;5.55;;
66607;SDS011;53462;39.616;8.824;2023-02-13T09:49:48;7.82;;;4.38;;
66607;SDS011;53462;39.616;8.824;2023-02-13T09:52:17;8.43;;;4.78;;
66607;SDS011;53462;39.616;8.824;2023-02-13T09:54:43;5.18;;;3.63;;
66607;SDS011;53462;39.616;8.824;2023-02-13T10:02:59;5.55;;;3.80;;
66607;SDS011;53462;39.616;8.824;2023-02-13T10:13:58;18.50;;;12.85;;
66607;SDS011;53462;39.616;8.824;2023-02-13T10:16:28;6.93;;;4.40;;
66607;SDS011;53462;39.616;8.824;2023-02-13T10:19:01;5.93;;;3.97;;
66607;SDS011;53462;39.616;8.824;2023-02-13T10:21:52;7.10;;;4.20;;
66607;SDS011;53462;39.616;8.824;2023-02-13T10:24:36;5.65;;;4.40;;
66607;SDS011;53462;39.616;8.824;2023-02-13T10:29:46;4.50;;;3.20;;
66607;SDS011;53462;39.616;8.824;2023-02-13T10:35:22;3.72;;;2.75;;
66607;SDS011;53462;39.616;8.824;2023-02-13T10:37:58;4.35;;;2.67;;
66607;SDS011;53462;39.616;8.824;2023-02-13T10:40:32;6.13;;;5.00;;
66607;SDS011;53462;39.616;8.824;2023-02-13T10:43:08;4.70;;;3.40;;
66607;SDS011;53462;39.616;8.824;2023-02-13T10:46:21;5.68;;;3.40;;
66607;SDS011;53462;39.616;8.824;2023-02-13T10:51:39;5.85;;;3.35;;
66607;SDS011;53462;39.616;8.824;2023-02-13T10:56:40;6.13;;;3.75;;
66607;SDS011;53462;39.616;8.824;2023-02-13T11:04:17;4.45;;;3.03;;
66607;SDS011;53462;39.616;8.824;2023-02-13T11:06:50;5.00;;;3.17;;
66607;SDS011;53462;39.616;8.824;2023-02-13T11:09:25;3.55;;;2.45;;
66607;SDS011;53462;39.616;8.824;2023-02-13T11:11:53;8.60;;;5.28;;
66607;SDS011;53462;39.616;8.824;2023-02-13T11:14:20;5.35;;;3.40;;
66607;SDS011;53462;39.616;8.824;2023-02-13T11:21:56;4.65;;;3.67;;
66607;SDS011;53462;39.616;8.824;2023-02-13T11:24:27;4.07;;;2.50;;
66607;SDS011;53462;39.616;8.824;2023-02-13T11:27:06;9.77;;;5.80;;
66607;SDS011;53462;39.616;8.824;2023-02-13T11:29:37;10.73;;;5.55;;
66607;SDS011;53462;39.616;8.824;2023-02-13T11:32:21;5.45;;;4.20;;
66607;SDS011;53462;39.616;8.824;2023-02-13T11:34:49;4.25;;;2.33;;
66607;SDS011;53462;39.616;8.824;2023-02-13T11:37:25;5.03;;;3.78;;
66607;SDS011;53462;39.616;8.824;2023-02-13T11:39:55;6.95;;;5.22;;
66607;SDS011;53462;39.616;8.824;2023-02-13T11:45:45;3.40;;;2.22;;
66607;SDS011;53462;39.616;8.824;2023-02-13T11:48:18;5.30;;;3.80;;
66607;SDS011;53462;39.616;8.824;2023-02-13T11:50:50;3.97;;;2.47;;
66607;SDS011;53462;39.616;8.824;2023-02-13T11:53:19;3.42;;;2.15;;
66607;SDS011;53462;39.616;8.824;2023-02-13T11:56:04;8.68;;;2.78;;
66607;SDS011;53462;39.616;8.824;2023-02-13T11:58:31;2.50;;;1.90;;
66607;SDS011;53462;39.616;8.824;2023-02-13T12:03:55;5.30;;;2.83;;
66607;SDS011;53462;39.616;8.824;2023-02-13T12:06:38;6.40;;;2.10;;
66607;SDS011;53462;39.616;8.824;2023-02-13T12:09:09;4.85;;;2.33;;
66607;SDS011;53462;39.616;8.824;2023-02-13T12:14:15;5.32;;;3.38;;
66607;SDS011;53462;39.616;8.824;2023-02-13T12:16:50;2.83;;;2.30;;
66607;SDS011;53462;39.616;8.824;2023-02-13T12:19:42;2.97;;;1.90;;
66607;SDS011;53462;39.616;8.824;2023-02-13T12:28:21;8.20;;;5.97;;
66607;SDS011;53462;39.616;8.824;2023-02-13T12:33:43;5.50;;;4.10;;
66607;SDS011;53462;39.616;8.824;2023-02-13T12:38:58;4.13;;;2.80;;
66607;SDS011;53462;39.616;8.824;2023-02-13T12:55:41;3.38;;;2.47;;
66607;SDS011;53462;39.616;8.824;2023-02-13T12:58:29;6.05;;;3.42;;
66607;SDS011;53462;39.616;8.824;2023-02-13T13:04:13;7.10;;;2.65;;
66607;SDS011;53462;39.616;8.824;2023-02-13T13:16:08;5.15;;;2.55;;
66607;SDS011;53462;39.616;8.824;2023-02-13T13:28:46;5.30;;;3.08;;
66607;SDS011;53462;39.616;8.824;2023-02-13T13:31:21;3.90;;;2.90;;
66607;SDS011;53462;39.616;8.824;2023-02-13T13:33:50;4.32;;;2.90;;
66607;SDS011;53462;39.616;8.824;2023-02-13T13:45:37;4.65;;;2.83;;
66607;SDS011;53462;39.616;8.824;2023-02-13T13:48:04;17.92;;;10.27;;
66607;SDS011;53462;39.616;8.824;2023-02-13T13:50:50;4.40;;;2.50;;
66607;SDS011;53462;39.616;8.824;2023-02-13T13:53:17;7.82;;;4.28;;
66607;SDS011;53462;39.616;8.824;2023-02-13T13:58:24;7.03;;;3.55;;
66607;SDS011;53462;39.616;8.824;2023-02-13T14:03:54;5.43;;;3.08;;
66607;SDS011;53462;39.616;8.824;2023-02-13T14:06:26;4.32;;;2.80;;
66607;SDS011;53462;39.616;8.824;2023-02-13T14:15:02;3.50;;;2.60;;
66607;SDS011;53462;39.616;8.824;2023-02-13T14:33:53;6.25;;;3.95;;
66607;SDS011;53462;39.616;8.824;2023-02-13T14:36:20;7.55;;;4.22;;
66607;SDS011;53462;39.616;8.824;2023-02-13T14:38:57;4.72;;;3.40;;
66607;SDS011;53462;39.616;8.824;2023-02-13T14:47:44;21.48;;;10.95;;
66607;SDS011;53462;39.616;8.824;2023-02-13T14:49:56;41.97;;;27.35;;
66607;SDS011;53462;39.616;8.824;2023-02-13T14:52:25;18.50;;;12.48;;
66607;SDS011;53462;39.616;8.824;2023-02-13T14:55:06;5.20;;;3.40;;
66607;SDS011;53462;39.616;8.824;2023-02-13T14:57:52;4.70;;;3.20;;
66607;SDS011;53462;39.616;8.824;2023-02-13T15:00:25;6.57;;;4.22;;
66607;SDS011;53462;39.616;8.824;2023-02-13T15:03:21;8.63;;;4.63;;
66607;SDS011;53462;39.616;8.824;2023-02-13T15:05:58;5.32;;;3.60;;
66607;SDS011;53462;39.616;8.824;2023-02-13T15:08:31;6.25;;;3.83;;
66607;SDS011;53462;39.616;8.824;2023-02-13T15:11:01;7.47;;;4.83;;
66607;SDS011;53462;39.616;8.824;2023-02-13T15:18:32;4.80;;;3.60;;
66607;SDS011;53462;39.616;8.824;2023-02-13T15:21:11;13.43;;;8.48;;
66607;SDS011;53462;39.616;8.824;2023-02-13T15:23:39;17.08;;;8.75;;
66607;SDS011;53462;39.616;8.824;2023-02-13T15:26:06;19.85;;;11.13;;
66607;SDS011;53462;39.616;8.824;2023-02-13T15:28:33;12.05;;;7.97;;
66607;SDS011;53462;39.616;8.824;2023-02-13T15:31:22;8.70;;;5.70;;
66607;SDS011;53462;39.616;8.824;2023-02-13T15:33:48;8.20;;;5.55;;
66607;SDS011;53462;39.616;8.824;2023-02-13T15:36:17;10.50;;;7.43;;
66607;SDS011;53462;39.616;8.824;2023-02-13T15:38:45;38.58;;;20.33;;
66607;SDS011;53462;39.616;8.824;2023-02-13T15:41:13;37.78;;;20.13;;
66607;SDS011;53462;39.616;8.824;2023-02-13T15:43:45;13.93;;;8.00;;
66607;SDS011;53462;39.616;8.824;2023-02-13T15:46:20;14.15;;;8.98;;
66607;SDS011;53462;39.616;8.824;2023-02-13T15:48:51;12.35;;;7.20;;
66607;SDS011;53462;39.616;8.824;2023-02-13T15:51:23;8.20;;;5.50;;
66607;SDS011;53462;39.616;8.824;2023-02-13T15:53:51;16.10;;;11.90;;
66607;SDS011;53462;39.616;8.824;2023-02-13T15:56:19;10.93;;;7.45;;
66607;SDS011;53462;39.616;8.824;2023-02-13T15:58:45;13.18;;;8.60;;
66607;SDS011;53462;39.616;8.824;2023-02-13T16:01:12;9.55;;;7.05;;
66607;SDS011;53462;39.616;8.824;2023-02-13T16:03:40;18.05;;;10.15;;
66607;SDS011;53462;39.616;8.824;2023-02-13T16:06:16;22.23;;;13.25;;
66607;SDS011;53462;39.616;8.824;2023-02-13T16:08:44;18.27;;;11.07;;
66607;SDS011;53462;39.616;8.824;2023-02-13T16:11:22;25.58;;;15.43;;
66607;SDS011;53462;39.616;8.824;2023-02-13T16:16:21;13.55;;;8.95;;
66607;SDS011;53462;39.616;8.824;2023-02-13T16:18:48;13.07;;;8.70;;
66607;SDS011;53462;39.616;8.824;2023-02-13T16:21:14;12.93;;;7.88;;
66607;SDS011;53462;39.616;8.824;2023-02-13T16:23:45;23.83;;;14.90;;
66607;SDS011;53462;39.616;8.824;2023-02-13T16:26:12;12.27;;;7.70;;
66607;SDS011;53462;39.616;8.824;2023-02-13T16:28:40;16.45;;;9.10;;
66607;SDS011;53462;39.616;8.824;2023-02-13T16:31:13;14.18;;;8.65;;
66607;SDS011;53462;39.616;8.824;2023-02-13T16:33:41;22.13;;;12.50;;
66607;SDS011;53462;39.616;8.824;2023-02-13T16:44:03;18.35;;;13.00;;
66607;SDS011;53462;39.616;8.824;2023-02-13T16:46:30;12.50;;;9.20;;
66607;SDS011;53462;39.616;8.824;2023-02-13T16:51:39;14.10;;;7.38;;
66607;SDS011;53462;39.616;8.824;2023-02-13T16:56:47;17.85;;;9.20;;
66607;SDS011;53462;39.616;8.824;2023-02-13T17:04:52;15.10;;;6.90;;
66607;SDS011;53462;39.616;8.824;2023-02-13T17:07:21;12.68;;;7.55;;
66607;SDS011;53462;39.616;8.824;2023-02-13T17:09:56;10.90;;;6.35;;
66607;SDS011;53462;39.616;8.824;2023-02-13T17:12:27;7.93;;;4.93;;
66607;SDS011;53462;39.616;8.824;2023-02-13T17:14:55;10.00;;;4.78;;
66607;SDS011;53462;39.616;8.824;2023-02-13T17:17:22;7.57;;;4.90;;
66607;SDS011;53462;39.616;8.824;2023-02-13T17:19:50;7.82;;;5.40;;
66607;SDS011;53462;39.616;8.824;2023-02-13T17:22:18;10.68;;;5.07;;
66607;SDS011;53462;39.616;8.824;2023-02-13T17:24:44;9.43;;;4.50;;
66607;SDS011;53462;39.616;8.824;2023-02-13T17:27:10;5.68;;;4.10;;
66607;SDS011;53462;39.616;8.824;2023-02-13T17:29:36;8.25;;;4.70;;
66607;SDS011;53462;39.616;8.824;2023-02-13T17:32:02;12.82;;;5.00;;
66607;SDS011;53462;39.616;8.824;2023-02-13T17:34:28;6.43;;;4.30;;
66607;SDS011;53462;39.616;8.824;2023-02-13T17:36:54;9.10;;;5.00;;
66607;SDS011;53462;39.616;8.824;2023-02-13T17:39:20;11.80;;;7.30;;
66607;SDS011;53462;39.616;8.824;2023-02-13T17:41:45;15.35;;;7.88;;
66607;SDS011;53462;39.616;8.824;2023-02-13T17:44:12;15.57;;;10.57;;
66607;SDS011;53462;39.616;8.824;2023-02-13T17:46:38;18.13;;;12.02;;
66607;SDS011;53462;39.616;8.824;2023-02-13T17:49:04;34.65;;;22.70;;
66607;SDS011;53462;39.616;8.824;2023-02-13T17:51:31;52.78;;;30.65;;
66607;SDS011;53462;39.616;8.824;2023-02-13T17:53:57;57.05;;;34.38;;
66607;SDS011;53462;39.616;8.824;2023-02-13T17:56:23;44.97;;;29.70;;
66607;SDS011;53462;39.616;8.824;2023-02-13T17:58:49;35.70;;;23.92;;
66607;SDS011;53462;39.616;8.824;2023-02-13T18:01:14;29.48;;;16.60;;
66607;SDS011;53462;39.616;8.824;2023-02-13T18:03:40;20.33;;;12.20;;
66607;SDS011;53462;39.616;8.824;2023-02-13T18:06:10;19.10;;;10.95;;
66607;SDS011;53462;39.616;8.824;2023-02-13T18:08:37;14.07;;;9.68;;
66607;SDS011;53462;39.616;8.824;2023-02-13T18:11:08;17.15;;;12.13;;
66607;SDS011;53462;39.616;8.824;2023-02-13T18:13:34;27.70;;;16.60;;
66607;SDS011;53462;39.616;8.824;2023-02-13T18:16:05;64.78;;;34.25;;
66607;SDS011;53462;39.616;8.824;2023-02-13T18:18:32;62.45;;;34.80;;
66607;SDS011;53462;39.616;8.824;2023-02-13T18:20:58;60.78;;;35.50;;
66607;SDS011;53462;39.616;8.824;2023-02-13T18:23:24;63.85;;;36.97;;
66607;SDS011;53462;39.616;8.824;2023-02-13T18:25:50;55.95;;;33.63;;
66607;SDS011;53462;39.616;8.824;2023-02-13T18:28:16;59.92;;;34.88;;
66607;SDS011;53462;39.616;8.824;2023-02-13T18:30:42;57.75;;;35.78;;